sensor_id;sensor_type;location;lat;lon;timestamp;P1;durP1;ratioP1;P2;durP2;ratioP2
6823;SDS011;58633;49.470;11.004;2022-07-10T00:01:03;4.05;;;3.72;;
6823;SDS011;58633;49.470;11.004;2022-07-10T00:03:29;3.10;;;2.90;;
6823;SDS011;58633;49.470;11.004;2022-07-10T00:05:54;3.50;;;3.20;;
6823;SDS011;58633;49.470;11.004;2022-07-10T00:08:20;3.20;;;3.00;;
6823;SDS011;58633;49.470;11.004;2022-07-10T00:10:45;3.70;;;3.30;;
6823;SDS011;58633;49.470;11.004;2022-07-10T00:13:11;4.10;;;3.70;;
6823;SDS011;58633;49.470;11.004;2022-07-10T00:15:36;4.20;;;3.40;;
6823;SDS011;58633;49.470;11.004;2022-07-10T00:18:02;3.40;;;3.10;;
6823;SDS011;58633;49.470;11.004;2022-07-10T00:20:28;3.55;;;3.25;;
6823;SDS011;58633;49.470;11.004;2022-07-10T00:22:54;3.90;;;3.17;;
6823;SDS011;58633;49.470;11.004;2022-07-10T00:25:20;4.38;;;3.13;;
6823;SDS011;58633;49.470;11.004;2022-07-10T00:27:45;3.50;;;2.90;;
6823;SDS011;58633;49.470;11.004;2022-07-10T00:30:11;3.90;;;3.60;;
6823;SDS011;58633;49.470;11.004;2022-07-10T00:32:37;5.10;;;3.75;;
6823;SDS011;58633;49.470;11.004;2022-07-10T00:35:03;3.50;;;3.20;;
6823;SDS011;58633;49.470;11.004;2022-07-10T00:37:29;4.00;;;3.70;;
6823;SDS011;58633;49.470;11.004;2022-07-10T00:39:55;4.25;;;3.60;;
6823;SDS011;58633;49.470;11.004;2022-07-10T00:42:21;3.50;;;3.30;;
6823;SDS011;58633;49.470;11.004;2022-07-10T00:44:46;3.70;;;3.40;;
6823;SDS011;58633;49.470;11.004;2022-07-10T00:47:12;4.10;;;3.70;;
6823;SDS011;58633;49.470;11.004;2022-07-10T00:49:42;3.92;;;3.60;;
6823;SDS011;58633;49.470;11.004;2022-07-10T00:52:08;3.80;;;3.50;;
6823;SDS011;58633;49.470;11.004;2022-07-10T00:54:37;5.18;;;3.67;;
6823;SDS011;58633;49.470;11.004;2022-07-10T00:57:05;4.15;;;3.60;;
6823;SDS011;58633;49.470;11.004;2022-07-10T00:59:31;4.13;;;3.83;;
6823;SDS011;58633;49.470;11.004;2022-07-10T01:01:57;3.70;;;3.40;;
6823;SDS011;58633;49.470;11.004;2022-07-10T01:04:23;4.72;;;3.78;;
6823;SDS011;58633;49.470;11.004;2022-07-10T01:06:49;3.70;;;3.40;;
6823;SDS011;58633;49.470;11.004;2022-07-10T01:09:15;4.05;;;3.65;;
6823;SDS011;58633;49.470;11.004;2022-07-10T01:11:40;3.88;;;3.58;;
6823;SDS011;58633;49.470;11.004;2022-07-10T01:14:06;4.47;;;3.50;;
6823;SDS011;58633;49.470;11.004;2022-07-10T01:16:32;3.80;;;3.50;;
6823;SDS011;58633;49.470;11.004;2022-07-10T01:18:59;4.07;;;3.70;;
6823;SDS011;58633;49.470;11.004;2022-07-10T01:21:29;3.70;;;3.47;;
6823;SDS011;58633;49.470;11.004;2022-07-10T01:23:57;4.00;;;3.70;;
6823;SDS011;58633;49.470;11.004;2022-07-10T01:26:24;4.40;;;3.60;;
6823;SDS011;58633;49.470;11.004;2022-07-10T01:28:50;4.15;;;3.83;;
6823;SDS011;58633;49.470;11.004;2022-07-10T01:31:18;3.95;;;3.55;;
6823;SDS011;58633;49.470;11.004;2022-07-10T01:33:44;3.60;;;3.30;;
6823;SDS011;58633;49.470;11.004;2022-07-10T01:36:13;3.90;;;3.50;;
6823;SDS011;58633;49.470;11.004;2022-07-10T01:38:39;5.05;;;3.63;;
6823;SDS011;58633;49.470;11.004;2022-07-10T01:41:05;3.78;;;3.47;;
6823;SDS011;58633;49.470;11.004;2022-07-10T01:43:31;4.13;;;3.50;;
6823;SDS011;58633;49.470;11.004;2022-07-10T01:45:56;3.53;;;3.22;;
6823;SDS011;58633;49.470;11.004;2022-07-10T01:48:22;4.40;;;3.80;;
6823;SDS011;58633;49.470;11.004;2022-07-10T01:50:48;4.35;;;3.50;;
6823;SDS011;58633;49.470;11.004;2022-07-10T01:53:13;4.60;;;3.53;;
6823;SDS011;58633;49.470;11.004;2022-07-10T01:55:39;3.33;;;3.13;;
6823;SDS011;58633;49.470;11.004;2022-07-10T01:58:04;5.43;;;3.38;;
6823;SDS011;58633;49.470;11.004;2022-07-10T02:00:30;3.67;;;3.33;;
6823;SDS011;58633;49.470;11.004;2022-07-10T02:02:55;3.60;;;3.30;;
6823;SDS011;58633;49.470;11.004;2022-07-10T02:05:39;3.40;;;3.10;;
6823;SDS011;58633;49.470;11.004;2022-07-10T02:08:05;5.07;;;3.55;;
6823;SDS011;58633;49.470;11.004;2022-07-10T02:10:31;4.28;;;3.35;;
6823;SDS011;58633;49.470;11.004;2022-07-10T02:12:57;3.33;;;3.13;;
6823;SDS011;58633;49.470;11.004;2022-07-10T02:15:22;4.47;;;3.47;;
6823;SDS011;58633;49.470;11.004;2022-07-10T02:17:48;3.45;;;3.13;;
6823;SDS011;58633;49.470;11.004;2022-07-10T02:20:14;3.35;;;3.05;;
6823;SDS011;58633;49.470;11.004;2022-07-10T02:22:39;3.60;;;3.30;;
6823;SDS011;58633;49.470;11.004;2022-07-10T02:25:06;4.30;;;2.75;;
6823;SDS011;58633;49.470;11.004;2022-07-10T02:27:32;3.38;;;3.08;;
6823;SDS011;58633;49.470;11.004;2022-07-10T02:29:58;3.55;;;2.90;;
6823;SDS011;58633;49.470;11.004;2022-07-10T02:32:24;7.10;;;2.83;;
6823;SDS011;58633;49.470;11.004;2022-07-10T02:34:49;3.45;;;2.63;;
6823;SDS011;58633;49.470;11.004;2022-07-10T02:37:15;4.30;;;2.58;;
6823;SDS011;58633;49.470;11.004;2022-07-10T02:39:40;2.65;;;2.45;;
6823;SDS011;58633;49.470;11.004;2022-07-10T02:42:06;2.70;;;2.50;;
6823;SDS011;58633;49.470;11.004;2022-07-10T02:44:32;3.30;;;2.50;;
6823;SDS011;58633;49.470;11.004;2022-07-10T02:46:57;3.30;;;2.70;;
6823;SDS011;58633;49.470;11.004;2022-07-10T02:49:23;2.50;;;2.30;;
6823;SDS011;58633;49.470;11.004;2022-07-10T02:51:48;3.65;;;2.33;;
6823;SDS011;58633;49.470;11.004;2022-07-10T02:54:15;3.38;;;2.40;;
6823;SDS011;58633;49.470;11.004;2022-07-10T02:56:41;3.78;;;2.58;;
6823;SDS011;58633;49.470;11.004;2022-07-10T02:59:07;3.65;;;2.17;;
6823;SDS011;58633;49.470;11.004;2022-07-10T03:01:32;4.30;;;2.38;;
6823;SDS011;58633;49.470;11.004;2022-07-10T03:03:58;3.00;;;2.38;;
6823;SDS011;58633;49.470;11.004;2022-07-10T03:06:23;3.20;;;2.38;;
6823;SDS011;58633;49.470;11.004;2022-07-10T03:08:49;3.25;;;2.50;;
6823;SDS011;58633;49.470;11.004;2022-07-10T03:11:14;4.20;;;2.30;;
6823;SDS011;58633;49.470;11.004;2022-07-10T03:13:40;5.55;;;2.47;;
6823;SDS011;58633;49.470;11.004;2022-07-10T03:16:05;3.08;;;2.30;;
6823;SDS011;58633;49.470;11.004;2022-07-10T03:18:31;2.67;;;2.20;;
6823;SDS011;58633;49.470;11.004;2022-07-10T03:20:57;2.78;;;2.35;;
6823;SDS011;58633;49.470;11.004;2022-07-10T03:23:23;2.97;;;2.25;;
6823;SDS011;58633;49.470;11.004;2022-07-10T03:25:48;3.40;;;2.20;;
6823;SDS011;58633;49.470;11.004;2022-07-10T03:28:14;4.13;;;2.03;;
6823;SDS011;58633;49.470;11.004;2022-07-10T03:30:39;3.78;;;2.40;;
6823;SDS011;58633;49.470;11.004;2022-07-10T03:33:05;4.10;;;2.60;;
6823;SDS011;58633;49.470;11.004;2022-07-10T03:35:30;4.13;;;2.13;;
6823;SDS011;58633;49.470;11.004;2022-07-10T03:37:56;3.65;;;2.05;;
6823;SDS011;58633;49.470;11.004;2022-07-10T03:40:22;2.63;;;2.20;;
6823;SDS011;58633;49.470;11.004;2022-07-10T03:42:48;3.30;;;2.05;;
6823;SDS011;58633;49.470;11.004;2022-07-10T03:45:14;3.25;;;2.05;;
6823;SDS011;58633;49.470;11.004;2022-07-10T03:47:39;3.28;;;1.80;;
6823;SDS011;58633;49.470;11.004;2022-07-10T03:50:05;4.45;;;1.80;;
6823;SDS011;58633;49.470;11.004;2022-07-10T03:52:31;4.40;;;1.70;;
6823;SDS011;58633;49.470;11.004;2022-07-10T03:54:56;7.35;;;1.80;;
6823;SDS011;58633;49.470;11.004;2022-07-10T03:57:22;1.88;;;1.50;;
6823;SDS011;58633;49.470;11.004;2022-07-10T04:00:06;4.32;;;1.70;;
6823;SDS011;58633;49.470;11.004;2022-07-10T04:02:32;2.33;;;1.70;;
6823;SDS011;58633;49.470;11.004;2022-07-10T04:04:58;4.68;;;1.48;;
6823;SDS011;58633;49.470;11.004;2022-07-10T04:07:23;3.60;;;1.45;;
6823;SDS011;58633;49.470;11.004;2022-07-10T04:09:50;2.72;;;1.75;;
6823;SDS011;58633;49.470;11.004;2022-07-10T04:12:15;3.78;;;1.40;;
6823;SDS011;58633;49.470;11.004;2022-07-10T04:14:41;4.93;;;1.40;;
6823;SDS011;58633;49.470;11.004;2022-07-10T04:17:06;2.45;;;1.40;;
6823;SDS011;58633;49.470;11.004;2022-07-10T04:19:33;2.22;;;1.60;;
6823;SDS011;58633;49.470;11.004;2022-07-10T04:21:59;7.25;;;1.40;;
6823;SDS011;58633;49.470;11.004;2022-07-10T04:24:24;2.20;;;1.30;;
6823;SDS011;58633;49.470;11.004;2022-07-10T04:26:50;1.45;;;1.27;;
6823;SDS011;58633;49.470;11.004;2022-07-10T04:29:15;3.58;;;1.25;;
6823;SDS011;58633;49.470;11.004;2022-07-10T04:31:41;4.45;;;1.50;;
6823;SDS011;58633;49.470;11.004;2022-07-10T04:34:07;3.20;;;1.30;;
6823;SDS011;58633;49.470;11.004;2022-07-10T04:36:32;3.55;;;1.52;;
6823;SDS011;58633;49.470;11.004;2022-07-10T04:38:58;1.58;;;1.00;;
6823;SDS011;58633;49.470;11.004;2022-07-10T04:41:23;3.40;;;1.17;;
6823;SDS011;58633;49.470;11.004;2022-07-10T04:43:49;2.60;;;1.20;;
6823;SDS011;58633;49.470;11.004;2022-07-10T04:46:14;4.70;;;1.25;;
6823;SDS011;58633;49.470;11.004;2022-07-10T04:48:40;3.30;;;1.30;;
6823;SDS011;58633;49.470;11.004;2022-07-10T04:51:06;2.42;;;1.20;;
6823;SDS011;58633;49.470;11.004;2022-07-10T04:53:31;2.35;;;1.17;;
6823;SDS011;58633;49.470;11.004;2022-07-10T04:55:57;3.42;;;1.00;;
6823;SDS011;58633;49.470;11.004;2022-07-10T04:58:23;1.27;;;0.88;;
6823;SDS011;58633;49.470;11.004;2022-07-10T05:00:48;3.00;;;1.40;;
6823;SDS011;58633;49.470;11.004;2022-07-10T05:03:14;1.75;;;1.13;;
6823;SDS011;58633;49.470;11.004;2022-07-10T05:05:40;2.88;;;1.17;;
6823;SDS011;58633;49.470;11.004;2022-07-10T05:08:06;3.50;;;1.10;;
6823;SDS011;58633;49.470;11.004;2022-07-10T05:10:33;3.30;;;1.17;;
6823;SDS011;58633;49.470;11.004;2022-07-10T05:12:58;1.88;;;1.20;;
6823;SDS011;58633;49.470;11.004;2022-07-10T05:15:23;3.80;;;1.13;;
6823;SDS011;58633;49.470;11.004;2022-07-10T05:17:49;2.78;;;1.10;;
6823;SDS011;58633;49.470;11.004;2022-07-10T05:20:15;2.88;;;1.00;;
6823;SDS011;58633;49.470;11.004;2022-07-10T05:22:41;2.10;;;1.10;;
6823;SDS011;58633;49.470;11.004;2022-07-10T05:25:07;1.88;;;1.23;;
6823;SDS011;58633;49.470;11.004;2022-07-10T05:27:32;3.65;;;1.20;;
6823;SDS011;58633;49.470;11.004;2022-07-10T05:29:58;8.27;;;1.20;;
6823;SDS011;58633;49.470;11.004;2022-07-10T05:32:23;3.00;;;1.00;;
6823;SDS011;58633;49.470;11.004;2022-07-10T05:34:50;3.85;;;1.27;;
6823;SDS011;58633;49.470;11.004;2022-07-10T05:37:16;1.65;;;0.95;;
6823;SDS011;58633;49.470;11.004;2022-07-10T05:39:43;2.60;;;1.10;;
6823;SDS011;58633;49.470;11.004;2022-07-10T05:42:08;3.67;;;0.88;;
6823;SDS011;58633;49.470;11.004;2022-07-10T05:44:34;1.90;;;0.80;;
6823;SDS011;58633;49.470;11.004;2022-07-10T05:46:59;0.85;;;0.70;;
6823;SDS011;58633;49.470;11.004;2022-07-10T05:49:25;3.50;;;1.75;;
6823;SDS011;58633;49.470;11.004;2022-07-10T05:51:50;2.97;;;0.73;;
6823;SDS011;58633;49.470;11.004;2022-07-10T05:54:16;1.73;;;0.80;;
6823;SDS011;58633;49.470;11.004;2022-07-10T05:56:42;2.88;;;1.23;;
6823;SDS011;58633;49.470;11.004;2022-07-10T05:59:07;3.13;;;0.82;;
6823;SDS011;58633;49.470;11.004;2022-07-10T06:01:33;1.77;;;0.80;;
6823;SDS011;58633;49.470;11.004;2022-07-10T06:03:58;1.98;;;0.80;;
6823;SDS011;58633;49.470;11.004;2022-07-10T06:06:24;1.10;;;0.80;;
6823;SDS011;58633;49.470;11.004;2022-07-10T06:08:49;2.83;;;0.90;;
6823;SDS011;58633;49.470;11.004;2022-07-10T06:11:15;2.25;;;0.75;;
6823;SDS011;58633;49.470;11.004;2022-07-10T06:13:41;3.17;;;0.80;;
6823;SDS011;58633;49.470;11.004;2022-07-10T06:16:06;2.00;;;1.17;;
6823;SDS011;58633;49.470;11.004;2022-07-10T06:18:32;2.22;;;1.00;;
6823;SDS011;58633;49.470;11.004;2022-07-10T06:20:57;2.47;;;0.80;;
6823;SDS011;58633;49.470;11.004;2022-07-10T06:23:23;2.42;;;0.80;;
6823;SDS011;58633;49.470;11.004;2022-07-10T06:25:49;1.95;;;1.38;;
6823;SDS011;58633;49.470;11.004;2022-07-10T06:28:14;1.73;;;0.80;;
6823;SDS011;58633;49.470;11.004;2022-07-10T06:30:41;2.70;;;0.90;;
6823;SDS011;58633;49.470;11.004;2022-07-10T06:33:07;1.00;;;0.90;;
6823;SDS011;58633;49.470;11.004;2022-07-10T06:35:32;1.75;;;0.90;;
6823;SDS011;58633;49.470;11.004;2022-07-10T06:37:58;4.45;;;1.05;;
6823;SDS011;58633;49.470;11.004;2022-07-10T06:40:24;2.63;;;0.95;;
6823;SDS011;58633;49.470;11.004;2022-07-10T06:42:51;3.00;;;1.00;;
6823;SDS011;58633;49.470;11.004;2022-07-10T06:45:16;2.25;;;0.98;;
6823;SDS011;58633;49.470;11.004;2022-07-10T06:47:42;1.67;;;0.80;;
6823;SDS011;58633;49.470;11.004;2022-07-10T06:50:24;2.72;;;1.00;;
6823;SDS011;58633;49.470;11.004;2022-07-10T06:52:51;3.88;;;1.23;;
6823;SDS011;58633;49.470;11.004;2022-07-10T06:55:20;2.42;;;0.95;;
6823;SDS011;58633;49.470;11.004;2022-07-10T06:57:46;1.55;;;0.88;;
6823;SDS011;58633;49.470;11.004;2022-07-10T07:00:12;2.03;;;0.90;;
6823;SDS011;58633;49.470;11.004;2022-07-10T07:02:37;3.78;;;0.98;;
6823;SDS011;58633;49.470;11.004;2022-07-10T07:05:04;0.90;;;0.80;;
6823;SDS011;58633;49.470;11.004;2022-07-10T07:07:30;1.55;;;0.70;;
6823;SDS011;58633;49.470;11.004;2022-07-10T07:09:56;5.18;;;1.38;;
6823;SDS011;58633;49.470;11.004;2022-07-10T07:12:22;2.17;;;0.90;;
6823;SDS011;58633;49.470;11.004;2022-07-10T07:14:48;6.45;;;1.60;;
6823;SDS011;58633;49.470;11.004;2022-07-10T07:17:13;1.27;;;0.68;;
6823;SDS011;58633;49.470;11.004;2022-07-10T07:19:47;2.85;;;0.85;;
6823;SDS011;58633;49.470;11.004;2022-07-10T07:22:35;3.20;;;1.25;;
6823;SDS011;58633;49.470;11.004;2022-07-10T07:25:20;1.00;;;0.50;;
6823;SDS011;58633;49.470;11.004;2022-07-10T07:27:46;3.80;;;0.70;;
6823;SDS011;58633;49.470;11.004;2022-07-10T07:30:13;3.05;;;0.82;;
6823;SDS011;58633;49.470;11.004;2022-07-10T07:32:40;3.50;;;1.00;;
6823;SDS011;58633;49.470;11.004;2022-07-10T07:35:06;2.58;;;1.17;;
6823;SDS011;58633;49.470;11.004;2022-07-10T07:37:36;2.28;;;1.30;;
6823;SDS011;58633;49.470;11.004;2022-07-10T07:40:04;1.27;;;0.70;;
6823;SDS011;58633;49.470;11.004;2022-07-10T07:42:31;1.23;;;0.80;;
6823;SDS011;58633;49.470;11.004;2022-07-10T07:44:57;1.58;;;0.63;;
6823;SDS011;58633;49.470;11.004;2022-07-10T07:47:23;1.60;;;0.70;;
6823;SDS011;58633;49.470;11.004;2022-07-10T07:49:48;2.30;;;0.70;;
6823;SDS011;58633;49.470;11.004;2022-07-10T07:52:14;2.75;;;0.80;;
6823;SDS011;58633;49.470;11.004;2022-07-10T07:54:40;0.73;;;0.60;;
6823;SDS011;58633;49.470;11.004;2022-07-10T07:57:05;1.00;;;0.70;;
6823;SDS011;58633;49.470;11.004;2022-07-10T07:59:31;1.17;;;0.60;;
6823;SDS011;58633;49.470;11.004;2022-07-10T08:01:56;2.15;;;0.63;;
6823;SDS011;58633;49.470;11.004;2022-07-10T08:04:22;2.35;;;0.80;;
6823;SDS011;58633;49.470;11.004;2022-07-10T08:06:47;5.82;;;0.70;;
6823;SDS011;58633;49.470;11.004;2022-07-10T08:09:16;2.10;;;0.63;;
6823;SDS011;58633;49.470;11.004;2022-07-10T08:11:45;1.75;;;0.80;;
6823;SDS011;58633;49.470;11.004;2022-07-10T08:14:12;1.15;;;0.80;;
6823;SDS011;58633;49.470;11.004;2022-07-10T08:16:39;1.05;;;0.60;;
6823;SDS011;58633;49.470;11.004;2022-07-10T08:19:05;1.85;;;0.70;;
6823;SDS011;58633;49.470;11.004;2022-07-10T08:21:30;2.35;;;1.10;;
6823;SDS011;58633;49.470;11.004;2022-07-10T08:23:56;1.08;;;0.80;;
6823;SDS011;58633;49.470;11.004;2022-07-10T08:26:22;2.03;;;0.88;;
6823;SDS011;58633;49.470;11.004;2022-07-10T08:28:47;1.08;;;0.60;;
6823;SDS011;58633;49.470;11.004;2022-07-10T08:31:13;1.95;;;0.70;;
6823;SDS011;58633;49.470;11.004;2022-07-10T08:33:39;0.55;;;0.50;;
6823;SDS011;58633;49.470;11.004;2022-07-10T08:36:04;0.77;;;0.60;;
6823;SDS011;58633;49.470;11.004;2022-07-10T08:38:30;2.30;;;1.02;;
6823;SDS011;58633;49.470;11.004;2022-07-10T08:40:56;0.85;;;0.50;;
6823;SDS011;58633;49.470;11.004;2022-07-10T08:43:23;0.70;;;0.60;;
6823;SDS011;58633;49.470;11.004;2022-07-10T08:45:50;1.33;;;0.70;;
6823;SDS011;58633;49.470;11.004;2022-07-10T08:48:19;1.17;;;0.50;;
6823;SDS011;58633;49.470;11.004;2022-07-10T08:50:47;1.20;;;0.52;;
6823;SDS011;58633;49.470;11.004;2022-07-10T08:53:16;1.88;;;0.43;;
6823;SDS011;58633;49.470;11.004;2022-07-10T08:55:48;1.55;;;0.75;;
6823;SDS011;58633;49.470;11.004;2022-07-10T08:58:14;0.68;;;0.63;;
6823;SDS011;58633;49.470;11.004;2022-07-10T09:00:41;0.73;;;0.60;;
6823;SDS011;58633;49.470;11.004;2022-07-10T09:03:07;2.10;;;0.60;;
6823;SDS011;58633;49.470;11.004;2022-07-10T09:05:33;0.98;;;0.60;;
6823;SDS011;58633;49.470;11.004;2022-07-10T09:08:00;0.50;;;0.50;;
6823;SDS011;58633;49.470;11.004;2022-07-10T09:10:26;1.98;;;0.50;;
6823;SDS011;58633;49.470;11.004;2022-07-10T09:15:23;1.17;;;0.50;;
6823;SDS011;58633;49.470;11.004;2022-07-10T09:17:51;1.02;;;0.70;;
6823;SDS011;58633;49.470;11.004;2022-07-10T09:20:29;1.00;;;0.60;;
6823;SDS011;58633;49.470;11.004;2022-07-10T09:22:56;1.17;;;0.50;;
6823;SDS011;58633;49.470;11.004;2022-07-10T09:25:29;2.15;;;0.60;;
6823;SDS011;58633;49.470;11.004;2022-07-10T09:27:56;1.13;;;0.50;;
6823;SDS011;58633;49.470;11.004;2022-07-10T09:33:14;0.70;;;0.60;;
6823;SDS011;58633;49.470;11.004;2022-07-10T09:38:52;1.27;;;0.77;;
6823;SDS011;58633;49.470;11.004;2022-07-10T09:43:49;3.38;;;0.70;;
6823;SDS011;58633;49.470;11.004;2022-07-10T09:46:20;1.48;;;0.80;;
6823;SDS011;58633;49.470;11.004;2022-07-10T09:48:47;1.50;;;0.60;;
6823;SDS011;58633;49.470;11.004;2022-07-10T09:51:13;1.15;;;0.50;;
6823;SDS011;58633;49.470;11.004;2022-07-10T09:53:43;1.15;;;0.60;;
6823;SDS011;58633;49.470;11.004;2022-07-10T09:56:10;1.48;;;0.63;;
6823;SDS011;58633;49.470;11.004;2022-07-10T09:58:37;2.33;;;0.70;;
6823;SDS011;58633;49.470;11.004;2022-07-10T10:01:04;1.83;;;0.73;;
6823;SDS011;58633;49.470;11.004;2022-07-10T10:03:32;1.98;;;0.65;;
6823;SDS011;58633;49.470;11.004;2022-07-10T10:06:04;1.70;;;0.57;;
6823;SDS011;58633;49.470;11.004;2022-07-10T10:11:49;2.42;;;0.65;;
6823;SDS011;58633;49.470;11.004;2022-07-10T10:14:37;2.63;;;0.80;;
6823;SDS011;58633;49.470;11.004;2022-07-10T10:17:04;1.63;;;0.80;;
6823;SDS011;58633;49.470;11.004;2022-07-10T10:19:31;2.05;;;0.65;;
6823;SDS011;58633;49.470;11.004;2022-07-10T10:22:17;1.95;;;0.60;;
6823;SDS011;58633;49.470;11.004;2022-07-10T10:24:43;2.20;;;0.70;;
6823;SDS011;58633;49.470;11.004;2022-07-10T10:27:10;0.57;;;0.57;;
6823;SDS011;58633;49.470;11.004;2022-07-10T10:29:37;1.73;;;0.60;;
6823;SDS011;58633;49.470;11.004;2022-07-10T10:32:04;0.77;;;0.50;;
6823;SDS011;58633;49.470;11.004;2022-07-10T10:34:39;2.28;;;0.60;;
6823;SDS011;58633;49.470;11.004;2022-07-10T10:37:07;2.88;;;1.00;;
6823;SDS011;58633;49.470;11.004;2022-07-10T10:39:55;2.15;;;0.85;;
6823;SDS011;58633;49.470;11.004;2022-07-10T10:42:31;1.52;;;1.05;;
6823;SDS011;58633;49.470;11.004;2022-07-10T10:48:08;0.80;;;0.68;;
6823;SDS011;58633;49.470;11.004;2022-07-10T10:50:51;1.67;;;0.80;;
6823;SDS011;58633;49.470;11.004;2022-07-10T11:01:29;2.00;;;0.82;;
6823;SDS011;58633;49.470;11.004;2022-07-10T11:06:39;1.95;;;0.93;;
6823;SDS011;58633;49.470;11.004;2022-07-10T11:11:57;1.65;;;0.90;;
6823;SDS011;58633;49.470;11.004;2022-07-10T11:14:23;1.38;;;1.00;;
6823;SDS011;58633;49.470;11.004;2022-07-10T11:16:53;4.88;;;0.90;;
6823;SDS011;58633;49.470;11.004;2022-07-10T11:19:29;2.22;;;0.80;;
6823;SDS011;58633;49.470;11.004;2022-07-10T11:28:32;2.08;;;0.77;;
6823;SDS011;58633;49.470;11.004;2022-07-10T11:30:22;1.80;;;0.80;;
6823;SDS011;58633;49.470;11.004;2022-07-10T11:32:48;2.08;;;0.80;;
6823;SDS011;58633;49.470;11.004;2022-07-10T11:35:15;1.00;;;0.70;;
6823;SDS011;58633;49.470;11.004;2022-07-10T11:37:51;1.30;;;0.77;;
6823;SDS011;58633;49.470;11.004;2022-07-10T11:40:17;1.98;;;0.93;;
6823;SDS011;58633;49.470;11.004;2022-07-10T11:42:50;2.10;;;0.90;;
6823;SDS011;58633;49.470;11.004;2022-07-10T11:47:55;3.10;;;0.80;;
6823;SDS011;58633;49.470;11.004;2022-07-10T11:50:21;2.08;;;0.80;;
6823;SDS011;58633;49.470;11.004;2022-07-10T11:52:47;2.85;;;0.82;;
6823;SDS011;58633;49.470;11.004;2022-07-10T11:55:15;1.80;;;0.70;;
6823;SDS011;58633;49.470;11.004;2022-07-10T11:57:42;1.25;;;0.70;;
6823;SDS011;58633;49.470;11.004;2022-07-10T12:00:27;1.88;;;0.80;;
6823;SDS011;58633;49.470;11.004;2022-07-10T12:02:55;1.30;;;0.60;;
6823;SDS011;58633;49.470;11.004;2022-07-10T12:05:38;1.20;;;0.80;;
6823;SDS011;58633;49.470;11.004;2022-07-10T12:08:04;2.13;;;1.10;;
6823;SDS011;58633;49.470;11.004;2022-07-10T12:10:31;3.20;;;1.10;;
6823;SDS011;58633;49.470;11.004;2022-07-10T12:13:04;1.90;;;0.60;;
6823;SDS011;58633;49.470;11.004;2022-07-10T12:15:34;0.82;;;0.70;;
6823;SDS011;58633;49.470;11.004;2022-07-10T12:18:02;1.10;;;0.80;;
6823;SDS011;58633;49.470;11.004;2022-07-10T12:20:39;0.82;;;0.82;;
6823;SDS011;58633;49.470;11.004;2022-07-10T12:23:07;1.65;;;1.00;;
6823;SDS011;58633;49.470;11.004;2022-07-10T12:25:34;2.40;;;0.90;;
6823;SDS011;58633;49.470;11.004;2022-07-10T12:28:00;1.00;;;0.50;;
6823;SDS011;58633;49.470;11.004;2022-07-10T12:30:36;1.15;;;0.70;;
6823;SDS011;58633;49.470;11.004;2022-07-10T12:33:07;2.70;;;0.63;;
6823;SDS011;58633;49.470;11.004;2022-07-10T12:35:51;1.05;;;0.57;;
6823;SDS011;58633;49.470;11.004;2022-07-10T12:38:18;0.65;;;0.60;;
6823;SDS011;58633;49.470;11.004;2022-07-10T12:41:05;0.60;;;0.60;;
6823;SDS011;58633;49.470;11.004;2022-07-10T12:43:33;1.55;;;0.68;;
6823;SDS011;58633;49.470;11.004;2022-07-10T12:46:08;4.20;;;0.90;;
6823;SDS011;58633;49.470;11.004;2022-07-10T12:48:35;2.05;;;0.63;;
6823;SDS011;58633;49.470;11.004;2022-07-10T12:53:50;0.95;;;0.47;;
6823;SDS011;58633;49.470;11.004;2022-07-10T12:56:26;2.70;;;0.63;;
6823;SDS011;58633;49.470;11.004;2022-07-10T12:58:52;1.50;;;0.60;;
6823;SDS011;58633;49.470;11.004;2022-07-10T13:01:18;0.75;;;0.52;;
6823;SDS011;58633;49.470;11.004;2022-07-10T13:03:44;1.05;;;0.52;;
6823;SDS011;58633;49.470;11.004;2022-07-10T13:06:26;0.73;;;0.57;;
6823;SDS011;58633;49.470;11.004;2022-07-10T13:08:53;1.33;;;0.90;;
6823;SDS011;58633;49.470;11.004;2022-07-10T13:11:19;1.35;;;0.60;;
6823;SDS011;58633;49.470;11.004;2022-07-10T13:13:45;0.80;;;0.60;;
6823;SDS011;58633;49.470;11.004;2022-07-10T13:16:10;0.70;;;0.70;;
6823;SDS011;58633;49.470;11.004;2022-07-10T13:18:36;3.53;;;1.00;;
6823;SDS011;58633;49.470;11.004;2022-07-10T13:21:01;0.50;;;0.40;;
6823;SDS011;58633;49.470;11.004;2022-07-10T13:23:29;0.40;;;0.40;;
6823;SDS011;58633;49.470;11.004;2022-07-10T13:25:58;0.68;;;0.68;;
6823;SDS011;58633;49.470;11.004;2022-07-10T13:28:25;0.47;;;0.40;;
6823;SDS011;58633;49.470;11.004;2022-07-10T13:30:51;1.13;;;0.60;;
6823;SDS011;58633;49.470;11.004;2022-07-10T13:33:17;1.88;;;0.50;;
6823;SDS011;58633;49.470;11.004;2022-07-10T13:35:43;0.90;;;0.50;;
6823;SDS011;58633;49.470;11.004;2022-07-10T13:38:08;1.35;;;0.60;;
6823;SDS011;58633;49.470;11.004;2022-07-10T13:40:34;0.50;;;0.50;;
6823;SDS011;58633;49.470;11.004;2022-07-10T13:43:02;0.88;;;0.60;;
6823;SDS011;58633;49.470;11.004;2022-07-10T13:45:29;1.83;;;0.60;;
6823;SDS011;58633;49.470;11.004;2022-07-10T13:48:01;1.33;;;0.60;;
6823;SDS011;58633;49.470;11.004;2022-07-10T13:50:27;0.50;;;0.50;;
6823;SDS011;58633;49.470;11.004;2022-07-10T13:52:53;0.75;;;0.60;;
6823;SDS011;58633;49.470;11.004;2022-07-10T13:55:18;1.08;;;0.60;;
6823;SDS011;58633;49.470;11.004;2022-07-10T13:57:44;1.08;;;0.60;;
6823;SDS011;58633;49.470;11.004;2022-07-10T14:00:09;1.13;;;0.70;;
6823;SDS011;58633;49.470;11.004;2022-07-10T14:02:36;0.95;;;0.70;;
6823;SDS011;58633;49.470;11.004;2022-07-10T14:05:01;1.25;;;0.60;;
6823;SDS011;58633;49.470;11.004;2022-07-10T14:07:27;2.33;;;0.80;;
6823;SDS011;58633;49.470;11.004;2022-07-10T14:09:53;0.77;;;0.52;;
6823;SDS011;58633;49.470;11.004;2022-07-10T14:12:19;0.95;;;0.60;;
6823;SDS011;58633;49.470;11.004;2022-07-10T14:14:44;1.95;;;0.60;;
6823;SDS011;58633;49.470;11.004;2022-07-10T14:17:10;1.13;;;0.60;;
6823;SDS011;58633;49.470;11.004;2022-07-10T14:19:37;0.80;;;0.60;;
6823;SDS011;58633;49.470;11.004;2022-07-10T14:22:02;0.77;;;0.60;;
6823;SDS011;58633;49.470;11.004;2022-07-10T14:24:28;0.82;;;0.50;;
6823;SDS011;58633;49.470;11.004;2022-07-10T14:26:54;1.27;;;0.60;;
6823;SDS011;58633;49.470;11.004;2022-07-10T14:29:20;1.35;;;0.70;;
6823;SDS011;58633;49.470;11.004;2022-07-10T14:31:45;1.52;;;0.70;;
6823;SDS011;58633;49.470;11.004;2022-07-10T14:34:15;1.00;;;0.90;;
6823;SDS011;58633;49.470;11.004;2022-07-10T14:36:41;1.98;;;0.80;;
6823;SDS011;58633;49.470;11.004;2022-07-10T14:39:06;1.60;;;0.90;;
6823;SDS011;58633;49.470;11.004;2022-07-10T14:41:32;1.85;;;0.65;;
6823;SDS011;58633;49.470;11.004;2022-07-10T14:43:57;0.95;;;0.80;;
6823;SDS011;58633;49.470;11.004;2022-07-10T14:46:23;3.33;;;0.70;;
6823;SDS011;58633;49.470;11.004;2022-07-10T14:48:49;0.68;;;0.60;;
6823;SDS011;58633;49.470;11.004;2022-07-10T14:51:15;0.95;;;0.60;;
6823;SDS011;58633;49.470;11.004;2022-07-10T14:53:42;0.98;;;0.43;;
6823;SDS011;58633;49.470;11.004;2022-07-10T14:56:10;0.90;;;0.70;;
6823;SDS011;58633;49.470;11.004;2022-07-10T14:58:37;1.83;;;0.50;;
6823;SDS011;58633;49.470;11.004;2022-07-10T15:01:02;2.03;;;0.70;;
6823;SDS011;58633;49.470;11.004;2022-07-10T15:03:28;1.17;;;0.60;;
6823;SDS011;58633;49.470;11.004;2022-07-10T15:05:55;1.85;;;0.73;;
6823;SDS011;58633;49.470;11.004;2022-07-10T15:08:22;1.45;;;0.75;;
6823;SDS011;58633;49.470;11.004;2022-07-10T15:10:48;0.75;;;0.70;;
6823;SDS011;58633;49.470;11.004;2022-07-10T15:13:14;1.50;;;0.55;;
6823;SDS011;58633;49.470;11.004;2022-07-10T15:15:40;0.88;;;0.60;;
6823;SDS011;58633;49.470;11.004;2022-07-10T15:18:06;1.25;;;0.60;;
6823;SDS011;58633;49.470;11.004;2022-07-10T15:20:32;1.75;;;0.80;;
6823;SDS011;58633;49.470;11.004;2022-07-10T15:22:58;0.75;;;0.57;;
6823;SDS011;58633;49.470;11.004;2022-07-10T15:25:23;2.50;;;0.73;;
6823;SDS011;58633;49.470;11.004;2022-07-10T15:27:52;1.83;;;1.20;;
6823;SDS011;58633;49.470;11.004;2022-07-10T15:30:18;1.85;;;0.98;;